createdAt,value
2019-05-22T00:01:51.813Z,47.90
2019-05-22T00:04:27.367Z,47.10
2019-05-22T00:06:59.284Z,47.20
2019-05-22T00:09:33.089Z,46.50
2019-05-22T00:12:03.407Z,46.50
2019-05-22T00:14:34.651Z,47.20
2019-05-22T00:17:06.453Z,46.60
2019-05-22T00:19:35.446Z,46.10
2019-05-22T00:22:22.147Z,46.70
2019-05-22T00:24:54.684Z,46.80
2019-05-22T00:27:25.585Z,46.90
2019-05-22T00:29:55.809Z,46.40
2019-05-22T00:32:25.989Z,46.30
2019-05-22T00:34:56.546Z,46.40
2019-05-22T00:37:26.433Z,47.30
2019-05-22T00:39:57.295Z,46.70
2019-05-22T00:42:27.762Z,46.20
2019-05-22T00:44:58.283Z,46.50
2019-05-22T00:47:29.895Z,46.20
2019-05-22T00:50:03.601Z,46.90
2019-05-22T00:52:59.732Z,47.60
2019-05-22T00:55:48.678Z,45.60
2019-05-22T00:58:20.177Z,45.90
2019-05-22T01:00:52.090Z,45.30
2019-05-22T01:03:22.683Z,35.30
2019-05-22T01:05:55.389Z,44.40
2019-05-22T01:08:28.047Z,43.50
2019-05-22T01:10:58.252Z,44.00
2019-05-22T01:13:30.628Z,44.30
2019-05-22T01:15:59.572Z,44.80
2019-05-22T01:18:30.051Z,44.20
2019-05-22T01:21:00.580Z,45.20
2019-05-22T01:23:32.980Z,45.90
2019-05-22T01:26:05.123Z,37.60
2019-05-22T01:28:36.878Z,45.40
2019-05-22T01:31:24.563Z,37.70
2019-05-22T01:33:59.406Z,45.60
2019-05-22T01:36:32.448Z,45.30
2019-05-22T01:39:32.597Z,36.70
2019-05-22T01:42:04.153Z,37.50
2019-05-22T01:44:35.048Z,44.70
2019-05-22T01:47:09.913Z,45.60
2019-05-22T01:49:43.989Z,44.70
2019-05-22T01:52:13.293Z,45.00
2019-05-22T01:54:42.956Z,45.20
2019-05-22T01:57:11.772Z,44.30
2019-05-22T01:59:42.028Z,44.60
2019-05-22T02:02:12.641Z,45.60
2019-05-22T02:04:42.141Z,44.10
2019-05-22T02:07:11.606Z,45.10
2019-05-22T02:09:42.325Z,44.10
2019-05-22T02:12:20.183Z,43.80
2019-05-22T02:14:50.485Z,44.20
2019-05-22T02:17:23.925Z,42.90
2019-05-22T02:19:53.278Z,43.20
2019-05-22T02:22:22.116Z,44.60
2019-05-22T02:24:51.785Z,43.20
2019-05-22T02:27:21.117Z,44.10
2019-05-22T02:29:52.711Z,44.40
2019-05-22T02:32:23.535Z,45.40
2019-05-22T02:34:54.134Z,44.60
2019-05-22T02:37:24.607Z,45.20
2019-05-22T02:39:54.229Z,45.80
2019-05-22T02:42:29.771Z,45.80
2019-05-22T02:44:59.886Z,45.00
2019-05-22T02:47:29.575Z,36.70
2019-05-22T02:50:00.169Z,45.00
2019-05-22T02:52:30.582Z,45.80
2019-05-22T02:54:59.633Z,44.70
2019-05-22T02:57:31.533Z,43.80
2019-05-22T03:00:00.760Z,45.70
2019-05-22T03:02:30.992Z,36.10
2019-05-22T03:05:08.104Z,44.60
2019-05-22T03:07:38.088Z,42.80
2019-05-22T03:10:10.539Z,40.60
2019-05-22T03:12:41.753Z,40.40
2019-05-22T03:15:14.668Z,38.60
2019-05-22T03:17:44.979Z,39.00
2019-05-22T03:20:19.118Z,37.50
2019-05-22T03:23:33.330Z,37.70
2019-05-22T03:26:02.443Z,37.40
2019-05-22T03:28:31.761Z,38.50
2019-05-22T03:31:00.761Z,39.30
2019-05-22T03:33:30.237Z,39.30
2019-05-22T03:36:09.607Z,38.90
2019-05-22T03:38:42.662Z,40.00
2019-05-22T03:41:12.824Z,40.60
2019-05-22T03:43:45.005Z,42.30
2019-05-22T03:46:48.519Z,41.90
2019-05-22T03:49:30.034Z,42.60
2019-05-22T03:51:50.730Z,44.30
2019-05-22T03:54:20.318Z,43.80
2019-05-22T03:56:50.123Z,44.00
2019-05-22T03:59:20.079Z,45.80
2019-05-22T04:01:49.214Z,46.70
2019-05-22T04:04:34.208Z,47.20
2019-05-22T04:07:03.869Z,46.90
2019-05-22T04:09:33.277Z,45.70
2019-05-22T04:12:02.730Z,46.10
2019-05-22T04:14:35.712Z,45.90
2019-05-22T04:17:06.088Z,46.50
2019-05-22T04:19:48.824Z,47.30
2019-05-22T04:22:06.009Z,48.00
2019-05-22T04:24:35.124Z,48.70
2019-05-22T04:27:05.103Z,47.10
2019-05-22T04:29:34.551Z,47.20
2019-05-22T04:32:21.838Z,47.60
2019-05-22T04:34:51.512Z,47.60
2019-05-22T04:37:21.735Z,48.10
2019-05-22T04:39:54.816Z,48.90
2019-05-22T04:42:24.866Z,49.40
2019-05-22T04:45:09.012Z,48.70
2019-05-22T04:47:39.105Z,48.40
2019-05-22T04:50:10.358Z,49.20
2019-05-22T04:52:39.510Z,48.40
2019-05-22T04:55:11.261Z,48.70
2019-05-22T04:57:40.972Z,48.80
2019-05-22T05:00:11.566Z,48.40
2019-05-22T05:02:40.806Z,49.10
2019-05-22T05:05:12.441Z,48.10
2019-05-22T05:07:41.598Z,49.00
2019-05-22T05:10:11.053Z,48.60
2019-05-22T05:12:42.248Z,48.70
2019-05-22T05:15:11.376Z,48.80
2019-05-22T05:17:40.652Z,50.00
2019-05-22T05:20:21.690Z,50.50
2019-05-22T05:22:47.377Z,51.50
2019-05-22T05:25:16.662Z,42.60
2019-05-22T05:27:47.604Z,52.10
2019-05-22T05:30:16.605Z,52.40
2019-05-22T05:32:45.559Z,52.60
2019-05-22T05:35:15.650Z,53.30
2019-05-22T05:37:44.689Z,53.90
2019-05-22T05:40:28.945Z,53.30
2019-05-22T05:42:58.501Z,54.20
2019-05-22T05:45:29.154Z,52.90
2019-05-22T05:47:59.273Z,53.20
2019-05-22T05:50:38.925Z,53.00
2019-05-22T05:53:04.877Z,53.00
2019-05-22T05:55:55.025Z,52.00
2019-05-22T05:58:26.457Z,51.50
2019-05-22T06:00:57.781Z,51.50
2019-05-22T06:03:35.787Z,51.30
2019-05-22T06:06:32.893Z,51.40
2019-05-22T06:09:03.481Z,49.80
2019-05-22T06:11:45.213Z,45.10
2019-05-22T06:14:20.464Z,44.00
2019-05-22T06:17:58.394Z,43.30
2019-05-22T06:20:28.353Z,43.50
2019-05-22T06:23:44.853Z,44.50
2019-05-22T06:26:26.621Z,44.70
2019-05-22T06:28:57.359Z,44.30
2019-05-22T06:31:39.921Z,45.00
2019-05-22T06:34:09.285Z,43.20
2019-05-22T06:36:38.331Z,43.70
2019-05-22T06:39:13.684Z,44.90
2019-05-22T06:41:43.913Z,43.00
2019-05-22T06:44:38.844Z,41.40
2019-05-22T06:47:22.401Z,39.80
2019-05-22T06:49:54.377Z,39.30
2019-05-22T06:52:23.558Z,37.10
2019-05-22T06:54:53.624Z,37.00
2019-05-22T06:57:25.134Z,36.50
2019-05-22T07:00:11.386Z,36.70
2019-05-22T07:02:25.984Z,37.00
2019-05-22T07:04:55.216Z,38.90
2019-05-22T07:07:29.364Z,39.80
2019-05-22T07:09:59.275Z,41.00
2019-05-22T07:12:29.965Z,42.90
2019-05-22T07:15:50.581Z,41.90
2019-05-22T07:18:22.592Z,44.10
2019-05-22T07:20:52.473Z,43.10
2019-05-22T07:23:30.415Z,40.90
2019-05-22T07:26:01.740Z,40.90
2019-05-22T07:28:32.448Z,41.20
2019-05-22T07:31:02.249Z,41.70
2019-05-22T07:33:31.398Z,41.10
2019-05-22T07:36:17.203Z,41.40
2019-05-22T07:38:31.036Z,40.90
2019-05-22T07:41:01.402Z,33.10
2019-05-22T07:43:30.495Z,33.50
2019-05-22T07:46:00.048Z,33.00
2019-05-22T07:48:30.867Z,35.60
2019-05-22T07:51:01.581Z,35.90
2019-05-22T07:53:30.610Z,36.40
2019-05-22T07:56:02.500Z,35.60
2019-05-22T07:58:32.900Z,36.80
2019-05-22T08:01:03.330Z,36.80
2019-05-22T08:03:33.048Z,37.40
2019-05-22T08:06:02.687Z,39.00
2019-05-22T08:08:33.004Z,40.20
2019-05-22T08:11:01.943Z,40.30
2019-05-22T08:13:32.124Z,36.70
2019-05-22T08:16:01.066Z,36.00
2019-05-22T08:18:32.455Z,36.30
2019-05-22T08:21:01.555Z,35.80
2019-05-22T08:23:31.000Z,32.60
2019-05-22T08:26:00.338Z,32.90
2019-05-22T08:28:31.028Z,31.70
2019-05-22T08:31:00.901Z,31.10
2019-05-22T08:33:30.414Z,32.10
2019-05-22T08:35:59.557Z,32.00
2019-05-22T08:38:30.913Z,32.20
2019-05-22T08:41:01.533Z,32.00
2019-05-22T08:43:31.041Z,32.10
2019-05-22T08:46:00.499Z,30.20
2019-05-22T08:48:30.411Z,30.60
2019-05-22T08:51:00.087Z,29.50
2019-05-22T08:53:44.489Z,29.10
2019-05-22T08:56:00.650Z,28.20
2019-05-22T08:58:29.992Z,30.60
2019-05-22T09:00:59.371Z,30.90
2019-05-22T09:03:28.634Z,29.60
2019-05-22T09:05:57.823Z,29.10
2019-05-22T09:08:26.792Z,29.60
2019-05-22T09:10:55.670Z,30.90
2019-05-22T09:13:24.617Z,30.90
2019-05-22T09:15:56.038Z,31.30
2019-05-22T09:18:25.846Z,31.80
2019-05-22T09:20:55.108Z,32.00
2019-05-22T09:23:24.230Z,31.40
2019-05-22T09:25:53.241Z,31.50
2019-05-22T09:28:24.701Z,31.20
2019-05-22T09:30:53.857Z,33.00
2019-05-22T09:33:22.985Z,33.10
2019-05-22T09:35:52.348Z,32.00
2019-05-22T09:38:21.225Z,30.40
2019-05-22T09:40:50.021Z,26.60
2019-05-22T09:43:19.122Z,22.60
2019-05-22T09:45:48.261Z,17.80
2019-05-22T09:48:17.400Z,16.10
2019-05-22T09:50:47.258Z,16.90
2019-05-22T09:53:16.373Z,17.40
2019-05-22T09:55:48.084Z,15.80
2019-05-22T09:58:17.056Z,18.10
2019-05-22T10:00:46.962Z,16.10
2019-05-22T10:03:15.921Z,13.40
2019-05-22T10:05:47.494Z,8.00
2019-05-22T10:08:15.638Z,3.90
2019-05-22T10:10:45.061Z,1.00
2019-05-22T10:13:14.132Z,1.00
2019-05-22T10:15:43.248Z,1.00
2019-05-22T10:18:12.798Z,1.00
2019-05-22T10:20:41.675Z,1.00
2019-05-22T10:23:15.574Z,1.00
2019-05-22T10:25:41.508Z,1.00
2019-05-22T10:28:11.770Z,1.00
2019-05-22T10:30:40.798Z,1.00
2019-05-22T10:33:09.939Z,1.00
2019-05-22T10:35:39.373Z,1.00
2019-05-22T10:38:09.443Z,1.00
2019-05-22T10:40:38.389Z,1.00
2019-05-22T10:43:07.553Z,1.50
2019-05-22T10:45:36.674Z,1.00
2019-05-22T10:48:05.937Z,1.00
2019-05-22T10:50:35.124Z,1.00
2019-05-22T10:53:04.130Z,1.00
2019-05-22T10:55:33.646Z,1.00
2019-05-22T10:58:02.516Z,1.00
2019-05-22T11:00:32.261Z,1.00
2019-05-22T11:03:01.288Z,1.00
2019-05-22T11:05:30.884Z,1.00
2019-05-22T11:07:59.837Z,1.00
2019-05-22T11:10:29.151Z,1.00
2019-05-22T11:12:58.034Z,1.00
2019-05-22T11:15:27.141Z,1.00
2019-05-22T11:17:56.753Z,1.00
2019-05-22T11:20:25.706Z,1.00
2019-05-22T11:22:54.945Z,1.00
2019-05-22T11:25:24.055Z,1.00
2019-05-22T11:27:54.421Z,1.00
2019-05-22T11:30:24.056Z,1.00
2019-05-22T11:32:54.746Z,1.00
2019-05-22T11:35:25.335Z,1.00
2019-05-22T11:37:54.226Z,1.00
2019-05-22T11:40:23.477Z,1.00
2019-05-22T11:42:53.584Z,1.00
2019-05-22T11:45:23.623Z,1.00
2019-05-22T11:47:53.108Z,1.00
2019-05-22T11:50:23.437Z,1.00
2019-05-22T11:52:52.761Z,1.00
2019-05-22T11:55:22.159Z,1.00
2019-05-22T11:57:51.650Z,1.00
2019-05-22T12:00:22.173Z,1.00
2019-05-22T12:02:51.518Z,1.00
2019-05-22T12:05:21.368Z,1.00
2019-05-22T12:07:51.385Z,1.00
2019-05-22T12:10:21.996Z,1.00
2019-05-22T12:12:52.058Z,1.00
2019-05-22T12:15:23.878Z,1.00
2019-05-22T12:17:53.490Z,1.80
2019-05-22T12:20:24.239Z,2.00
2019-05-22T12:22:53.176Z,3.00
2019-05-22T12:25:24.486Z,1.00
2019-05-22T12:27:53.593Z,1.00
2019-05-22T12:30:25.501Z,1.00
2019-05-22T12:32:55.733Z,1.00
2019-05-22T12:35:25.389Z,1.00
2019-05-22T12:37:54.859Z,1.00
2019-05-22T12:40:25.004Z,1.00
2019-05-22T12:42:53.986Z,1.00
2019-05-22T12:45:27.270Z,1.00
2019-05-22T12:47:56.749Z,1.00
2019-05-22T12:50:29.033Z,1.00
2019-05-22T12:52:58.740Z,1.00
2019-05-22T12:55:28.621Z,1.00
2019-05-22T12:57:57.675Z,1.00
2019-05-22T13:00:28.543Z,1.00
2019-05-22T13:02:58.618Z,1.00
2019-05-22T13:05:27.559Z,1.00
2019-05-22T13:07:57.609Z,1.00
2019-05-22T13:10:27.192Z,1.00
2019-05-22T13:12:58.992Z,1.00
2019-05-22T13:15:28.220Z,1.00
2019-05-22T13:17:59.402Z,1.00
2019-05-22T13:20:42.614Z,1.00
2019-05-22T13:23:04.622Z,1.00
2019-05-22T13:25:36.850Z,1.00
2019-05-22T13:28:06.971Z,1.00
2019-05-22T13:30:37.702Z,1.00
2019-05-22T13:33:09.868Z,1.00
2019-05-22T13:35:39.737Z,1.00
2019-05-22T13:38:08.635Z,1.00
2019-05-22T13:40:37.826Z,1.00
2019-05-22T13:43:07.283Z,1.00
2019-05-22T13:45:36.424Z,1.00
2019-05-22T13:48:05.377Z,1.00
2019-05-22T13:50:34.507Z,1.00
2019-05-22T13:53:08.127Z,1.00
2019-05-22T13:55:37.245Z,1.00
2019-05-22T13:58:06.974Z,1.00
2019-05-22T14:00:37.070Z,1.00
2019-05-22T14:03:06.470Z,1.00
2019-05-22T14:05:36.405Z,1.00
2019-05-22T14:08:06.088Z,1.00
2019-05-22T14:10:35.297Z,1.00
2019-05-22T14:13:06.148Z,1.00
2019-05-22T14:15:48.819Z,1.00
2019-05-22T14:18:06.372Z,1.00
2019-05-22T14:20:36.612Z,1.00
2019-05-22T14:23:08.629Z,1.00
2019-05-22T14:25:37.641Z,1.00
2019-05-22T14:28:07.705Z,1.00
2019-05-22T14:30:37.341Z,1.00
2019-05-22T14:33:06.594Z,1.00
2019-05-22T14:35:48.122Z,1.00
2019-05-22T14:38:09.966Z,1.00
2019-05-22T14:40:39.741Z,1.00
2019-05-22T14:43:08.807Z,1.00
2019-05-22T14:45:38.240Z,1.00
2019-05-22T14:48:07.637Z,1.00
2019-05-22T14:50:46.937Z,1.00
2019-05-22T14:53:17.690Z,1.00
2019-05-22T14:55:47.915Z,1.00
2019-05-22T14:58:17.147Z,1.00
2019-05-22T15:00:48.617Z,1.00
2019-05-22T15:03:18.178Z,1.00
2019-05-22T15:05:47.311Z,1.00
2019-05-22T15:08:16.176Z,1.00
2019-05-22T15:10:46.110Z,1.00
2019-05-22T15:13:15.235Z,1.00
2019-05-22T15:15:44.111Z,1.00
2019-05-22T15:18:13.241Z,1.00
2019-05-22T15:21:01.110Z,1.00
2019-05-22T15:23:31.113Z,1.00
2019-05-22T15:26:01.003Z,1.00
2019-05-22T15:28:30.403Z,1.00
2019-05-22T15:30:59.705Z,1.00
2019-05-22T15:33:29.229Z,1.00
2019-05-22T15:35:58.286Z,1.00
2019-05-22T15:38:28.374Z,1.00
2019-05-22T15:40:57.221Z,1.00
2019-05-22T15:43:28.061Z,1.00
2019-05-22T15:45:58.877Z,1.00
2019-05-22T15:48:31.212Z,1.00
2019-05-22T15:51:06.543Z,1.00
2019-05-22T15:53:37.068Z,1.00
2019-05-22T15:56:07.012Z,1.00
2019-05-22T15:58:39.109Z,1.00
2019-05-22T16:01:11.070Z,1.00
2019-05-22T16:03:42.241Z,1.00
2019-05-22T16:06:13.027Z,1.00
2019-05-22T16:08:42.741Z,1.00
2019-05-22T16:11:15.445Z,1.00
2019-05-22T16:13:46.299Z,1.00
2019-05-22T16:16:16.564Z,1.00
2019-05-22T16:18:50.097Z,1.00
2019-05-22T16:21:19.686Z,1.00
2019-05-22T16:23:49.096Z,1.00
2019-05-22T16:26:18.700Z,1.00
2019-05-22T16:28:49.139Z,1.00
2019-05-22T16:31:20.334Z,1.00
2019-05-22T16:33:51.649Z,1.00
2019-05-22T16:36:20.946Z,1.00
2019-05-22T16:38:51.679Z,1.00
2019-05-22T16:43:51.215Z,1.00
2019-05-22T16:46:21.024Z,1.00
2019-05-22T16:48:51.644Z,1.00
2019-05-22T16:51:21.595Z,1.00
2019-05-22T16:53:53.920Z,1.00
2019-05-22T16:56:23.357Z,1.00
2019-05-22T16:58:52.573Z,1.00
2019-05-22T17:01:22.650Z,1.00
2019-05-22T17:03:54.629Z,1.00
2019-05-22T17:06:25.245Z,1.00
2019-05-22T17:08:57.162Z,1.00
2019-05-22T17:11:27.027Z,1.00
2019-05-22T17:13:59.154Z,1.00
2019-05-22T17:16:30.072Z,1.00
2019-05-22T17:18:59.205Z,1.00
2019-05-22T17:21:29.223Z,1.00
2019-05-22T17:23:59.245Z,1.00
2019-05-22T17:26:29.873Z,1.00
2019-05-22T17:28:59.380Z,1.00
2019-05-22T17:31:28.968Z,1.00
2019-05-22T17:33:59.175Z,1.00
2019-05-22T17:36:30.339Z,1.00
2019-05-22T17:38:59.270Z,1.00
2019-05-22T17:41:30.298Z,1.00
2019-05-22T17:44:01.516Z,1.00
2019-05-22T17:46:33.308Z,1.00
2019-05-22T17:49:03.425Z,1.00
2019-05-22T17:51:32.655Z,1.00
2019-05-22T17:54:01.579Z,1.00
2019-05-22T17:56:30.685Z,1.00
2019-05-22T17:58:59.726Z,1.00
2019-05-22T18:01:29.127Z,1.00
2019-05-22T18:03:58.387Z,1.00
2019-05-22T18:06:27.409Z,1.00
2019-05-22T18:08:56.891Z,1.00
2019-05-22T18:11:25.689Z,1.00
2019-05-22T18:14:00.567Z,1.00
2019-05-22T18:16:30.459Z,1.00
2019-05-22T18:19:00.090Z,1.00
2019-05-22T18:21:29.787Z,1.00
2019-05-22T18:23:58.754Z,1.00
2019-05-22T18:26:27.739Z,1.00
2019-05-22T18:28:56.604Z,1.00
2019-05-22T18:31:26.673Z,1.00
2019-05-22T18:33:55.611Z,1.00
2019-05-22T18:36:24.410Z,1.00
2019-05-22T18:38:53.352Z,1.00
2019-05-22T18:41:22.300Z,1.00
2019-05-22T18:43:51.862Z,1.00
2019-05-22T18:46:20.865Z,1.00
2019-05-22T18:48:49.939Z,1.00
2019-05-22T18:51:19.649Z,1.00
2019-05-22T18:53:48.533Z,1.00
2019-05-22T18:56:18.183Z,1.00
2019-05-22T18:58:47.207Z,1.00
2019-05-22T19:01:16.574Z,1.00
2019-05-22T19:03:45.592Z,1.00
2019-05-22T19:06:14.505Z,1.00
2019-05-22T19:08:43.276Z,1.00
2019-05-22T19:11:12.126Z,1.00
2019-05-22T19:13:41.178Z,1.00
2019-05-22T19:16:10.120Z,1.00
2019-05-22T19:18:38.896Z,1.00
2019-05-22T19:21:08.361Z,1.00
2019-05-22T19:23:37.293Z,1.00
2019-05-22T19:26:07.436Z,1.00
2019-05-22T19:28:43.659Z,1.00
2019-05-22T19:31:07.625Z,1.00
2019-05-22T19:33:36.649Z,1.00
2019-05-22T19:36:05.519Z,1.00
2019-05-22T19:38:36.173Z,1.00
2019-05-22T19:41:05.606Z,1.00
2019-05-22T19:43:35.049Z,1.00
2019-05-22T19:46:03.911Z,1.00
2019-05-22T19:48:32.767Z,1.00
2019-05-22T19:51:02.609Z,1.00
2019-05-22T19:53:32.445Z,1.00
2019-05-22T19:56:01.340Z,1.00
2019-05-22T19:58:30.383Z,1.00
2019-05-22T20:00:59.599Z,1.00
2019-05-22T20:03:29.108Z,1.00
2019-05-22T20:05:58.293Z,1.00
2019-05-22T20:08:27.265Z,1.00
2019-05-22T20:10:56.196Z,1.00
2019-05-22T20:13:25.240Z,1.00
2019-05-22T20:15:54.973Z,1.00
2019-05-22T20:18:24.112Z,1.00
2019-05-22T20:20:53.248Z,1.00
2019-05-22T20:23:35.572Z,1.00
2019-05-22T20:25:53.189Z,1.00
2019-05-22T20:28:22.045Z,1.00
2019-05-22T20:30:51.191Z,1.00
2019-05-22T20:33:20.464Z,1.00
2019-05-22T20:35:49.317Z,1.00
2019-05-22T20:38:18.375Z,1.00
2019-05-22T20:40:48.220Z,1.00
2019-05-22T20:43:17.203Z,1.00
2019-05-22T20:45:47.833Z,1.00
2019-05-22T20:48:25.628Z,1.00
2019-05-22T20:50:56.784Z,1.00
2019-05-22T20:53:27.158Z,1.00
2019-05-22T20:55:56.838Z,1.00
2019-05-22T20:58:27.583Z,1.00
2019-05-22T21:00:57.317Z,1.00
2019-05-22T21:03:26.263Z,1.00
2019-05-22T21:05:56.777Z,1.00
2019-05-22T21:08:26.612Z,1.00
2019-05-22T21:10:57.428Z,1.00
2019-05-22T21:13:26.530Z,1.00
2019-05-22T21:15:55.857Z,1.00
2019-05-22T21:18:39.474Z,1.00
2019-05-22T21:21:09.232Z,1.00
2019-05-22T21:23:40.485Z,1.00
2019-05-22T21:26:09.616Z,1.00
2019-05-22T21:28:39.287Z,1.00
2019-05-22T21:31:08.113Z,1.00
2019-05-22T21:33:38.589Z,1.00
2019-05-22T21:36:10.612Z,1.00
2019-05-22T21:38:40.878Z,1.00
2019-05-22T21:41:09.911Z,1.00
2019-05-22T21:43:39.063Z,1.00
2019-05-22T21:46:08.549Z,1.00
2019-05-22T21:48:39.270Z,1.00
2019-05-22T21:51:08.675Z,1.00
2019-05-22T21:53:41.301Z,1.00
2019-05-22T21:56:11.404Z,1.00
2019-05-22T21:58:41.417Z,1.00
2019-05-22T22:01:19.881Z,1.00
2019-05-22T22:03:53.536Z,1.00
2019-05-22T22:06:22.633Z,1.00
2019-05-22T22:08:51.940Z,1.00
2019-05-22T22:11:25.103Z,1.00
2019-05-22T22:13:54.647Z,1.00
2019-05-22T22:16:24.719Z,1.00
2019-05-22T22:18:55.080Z,1.00
2019-05-22T22:21:27.244Z,1.00
2019-05-22T22:23:56.172Z,1.00
2019-05-22T22:26:26.733Z,1.00
2019-05-22T22:28:55.927Z,1.00
2019-05-22T22:31:26.908Z,1.00
2019-05-22T22:34:01.887Z,1.00
2019-05-22T22:36:31.579Z,1.00
2019-05-22T22:39:00.821Z,1.00
2019-05-22T22:41:29.940Z,1.00
2019-05-22T22:43:59.217Z,1.00
2019-05-22T22:46:43.188Z,1.00
2019-05-22T22:49:15.242Z,1.00
2019-05-22T22:51:46.709Z,1.00
2019-05-22T22:54:15.609Z,1.00
2019-05-22T22:56:45.473Z,1.00
2019-05-22T22:59:15.177Z,1.00
2019-05-22T23:01:47.909Z,1.00
2019-05-22T23:04:21.380Z,1.00
2019-05-22T23:06:50.784Z,1.00
2019-05-22T23:09:21.377Z,1.00
2019-05-22T23:11:51.570Z,1.00
2019-05-22T23:14:22.919Z,1.00
2019-05-22T23:16:51.821Z,1.00
2019-05-22T23:19:33.615Z,1.00
2019-05-22T23:22:03.266Z,1.00
2019-05-22T23:24:32.853Z,1.00
2019-05-22T23:27:02.522Z,1.00
2019-05-22T23:29:32.693Z,1.00
2019-05-22T23:32:02.392Z,1.00
2019-05-22T23:34:31.991Z,1.00
2019-05-22T23:37:03.760Z,1.00
2019-05-22T23:39:33.294Z,1.00
2019-05-22T23:42:09.958Z,1.00
2019-05-22T23:44:39.741Z,1.00
2019-05-22T23:47:09.230Z,1.00
2019-05-22T23:49:39.518Z,1.00
2019-05-22T23:52:10.293Z,1.00
2019-05-22T23:54:40.065Z,1.00
2019-05-22T23:57:12.839Z,1.00
2019-05-22T23:59:44.623Z,1.00
